Brooks, Wisconsin
Current Conditions -  °F | °C
As of 8:55 AM on Tuesday 21 Oct 2014 (Local Time) from KDLL Reporting Station
Overcast Overcast  
Wind Chill: 38°   Ceiling: 1900
Heat Index: 41°   Visibility: 10mi
Dew Point: 36°   Wind: 5mph
Humidity: 81%   Direction: 50°NE
Pressure: 30.21"   Gusts: NA
Location:  43.7882°N, 89.5815°W
Report Text: KDLL 211355Z AUTO 05004KT 10SM OVC019 05/02 A3021 RMK AO2 T00510020
Loading
Personal Weather Stations






























Interactive Weather Map
Tropical Storm Tracking
New forecast layout! Learn more

10-Day Weather Forecast

Advertisements
Track Severe Weather on mobile